createdAt,value
2023-02-03T00:01:49.055Z,3.74
2023-02-03T00:04:57.209Z,3.79
2023-02-03T00:08:10.295Z,3.84
2023-02-03T00:11:19.590Z,3.74
2023-02-03T00:14:27.928Z,3.77
2023-02-03T00:17:36.402Z,3.74
2023-02-03T00:20:44.871Z,3.80
2023-02-03T00:23:55.456Z,3.76
2023-02-03T00:27:03.627Z,3.77
2023-02-03T00:30:14.625Z,3.79
2023-02-03T00:33:22.848Z,3.74
2023-02-03T00:36:31.066Z,3.73
2023-02-03T00:39:41.010Z,3.73
2023-02-03T00:42:49.351Z,3.78
2023-02-03T00:45:57.675Z,3.87
2023-02-03T00:49:06.434Z,3.75
2023-02-03T00:52:14.821Z,3.77
2023-02-03T00:55:24.758Z,3.84
2023-02-03T00:58:32.869Z,3.77
2023-02-03T01:01:41.414Z,3.82
2023-02-03T01:04:50.668Z,3.74
2023-02-03T01:07:59.041Z,3.84
2023-02-03T01:11:11.181Z,3.75
2023-02-03T01:14:20.051Z,3.73
2023-02-03T01:17:28.533Z,3.79
2023-02-03T01:20:37.308Z,3.74
2023-02-03T01:23:47.047Z,3.72
2023-02-03T01:26:56.537Z,3.75
2023-02-03T01:30:05.651Z,3.78
2023-02-03T01:33:14.008Z,3.77
2023-02-03T01:36:25.157Z,3.77
2023-02-03T01:39:33.453Z,3.84
2023-02-03T01:42:43.236Z,3.84
2023-02-03T01:45:51.708Z,3.81
2023-02-03T01:49:09.409Z,3.80
2023-02-03T01:52:19.015Z,3.86
2023-02-03T01:55:35.705Z,3.86
2023-02-03T01:58:48.569Z,3.83
2023-02-03T02:01:58.878Z,3.86
2023-02-03T02:05:15.766Z,3.89
2023-02-03T02:08:25.717Z,3.87
2023-02-03T02:11:34.857Z,3.91
2023-02-03T02:14:46.984Z,3.86
2023-02-03T02:18:21.631Z,3.90
2023-02-03T02:22:01.178Z,3.87
2023-02-03T02:25:57.523Z,3.96
2023-02-03T02:29:36.554Z,3.92
2023-02-03T02:33:03.715Z,3.95
2023-02-03T02:36:28.640Z,3.88
2023-02-03T02:39:54.598Z,3.98
2023-02-03T02:43:11.650Z,3.97
2023-02-03T02:46:27.598Z,3.93
2023-02-03T02:49:46.423Z,3.98
2023-02-03T02:52:56.471Z,4.01
2023-02-03T02:56:11.055Z,3.98
2023-02-03T02:59:20.255Z,3.99
2023-02-03T03:02:35.037Z,4.05
2023-02-03T03:05:54.529Z,4.03
2023-02-03T03:09:11.790Z,4.01
2023-02-03T03:12:25.844Z,4.01
2023-02-03T03:15:37.944Z,3.99
2023-02-03T03:18:54.048Z,3.99
2023-02-03T03:22:10.285Z,4.08
2023-02-03T03:25:25.944Z,4.01
2023-02-03T03:28:43.536Z,4.07
2023-02-03T03:31:52.141Z,4.11
2023-02-03T03:35:02.945Z,4.08
2023-02-03T03:38:21.278Z,4.10
2023-02-03T03:41:42.483Z,4.09
2023-02-03T03:44:59.004Z,4.04
2023-02-03T03:48:15.381Z,4.19
2023-02-03T03:51:29.580Z,4.14
2023-02-03T03:54:43.637Z,4.07
2023-02-03T03:58:00.297Z,4.03
2023-02-03T04:01:09.974Z,4.02
2023-02-03T04:04:19.778Z,3.98
2023-02-03T04:07:40.125Z,4.03
2023-02-03T04:10:49.803Z,4.07
2023-02-03T04:13:58.042Z,4.05
2023-02-03T04:17:06.713Z,4.07
2023-02-03T04:20:16.523Z,4.02
2023-02-03T04:23:28.126Z,4.01
2023-02-03T04:26:37.681Z,4.02
2023-02-03T04:29:47.568Z,4.03
2023-02-03T04:32:55.851Z,4.03
2023-02-03T04:36:04.831Z,4.08
2023-02-03T04:39:13.181Z,4.09
2023-02-03T04:42:23.305Z,4.08
2023-02-03T04:45:31.509Z,4.08
2023-02-03T04:48:40.094Z,4.04
2023-02-03T04:51:50.673Z,4.08
2023-02-03T04:54:59.215Z,4.10
2023-02-03T04:58:09.779Z,4.15
2023-02-03T05:01:18.669Z,4.12
2023-02-03T05:04:26.929Z,4.15
2023-02-03T05:07:35.422Z,4.15
2023-02-03T05:10:43.661Z,4.13
2023-02-03T05:13:54.437Z,4.11
2023-02-03T05:17:02.745Z,4.15
2023-02-03T05:20:12.902Z,4.09
2023-02-03T05:23:21.090Z,4.11
2023-02-03T05:26:29.399Z,4.17
2023-02-03T05:29:38.935Z,4.12
2023-02-03T05:32:47.080Z,4.15
2023-02-03T05:35:56.120Z,4.08
2023-02-03T05:39:04.611Z,4.17
2023-02-03T05:42:12.071Z,4.05
2023-02-03T05:45:21.624Z,4.08
2023-02-03T05:48:30.646Z,4.13
2023-02-03T05:51:39.755Z,4.01
2023-02-03T05:54:47.980Z,4.03
2023-02-03T05:57:56.444Z,4.03
2023-02-03T06:01:06.152Z,4.05
2023-02-03T06:04:14.710Z,4.04
2023-02-03T06:07:23.105Z,4.00
2023-02-03T06:10:31.621Z,3.98
2023-02-03T06:13:39.895Z,3.97
2023-02-03T06:16:49.527Z,4.05
2023-02-03T06:19:57.671Z,4.11
2023-02-03T06:23:05.843Z,4.07
2023-02-03T06:26:15.235Z,4.04
2023-02-03T06:29:23.397Z,4.06
2023-02-03T06:32:33.399Z,4.10
2023-02-03T06:35:41.646Z,4.08
2023-02-03T06:38:49.826Z,4.10
2023-02-03T06:41:58.294Z,4.07
2023-02-03T06:45:08.390Z,4.08
2023-02-03T06:48:17.880Z,4.10
2023-02-03T06:51:26.201Z,4.05
2023-02-03T06:54:34.673Z,4.12
2023-02-03T06:57:46.740Z,4.01
2023-02-03T07:00:57.240Z,4.18
2023-02-03T07:04:07.413Z,4.21
2023-02-03T07:07:15.671Z,4.16
2023-02-03T07:10:24.261Z,4.21
2023-02-03T07:13:32.637Z,4.26
2023-02-03T07:16:41.067Z,4.26
2023-02-03T07:19:50.864Z,4.26
2023-02-03T07:22:59.853Z,4.23
2023-02-03T07:26:11.071Z,4.34
2023-02-03T07:29:19.745Z,4.37
2023-02-03T07:32:27.963Z,4.44
2023-02-03T07:35:42.893Z,4.46
2023-02-03T07:38:51.270Z,4.52
2023-02-03T07:41:59.490Z,4.48
2023-02-03T07:45:11.683Z,4.53
2023-02-03T07:48:20.150Z,4.56
2023-02-03T07:51:29.910Z,4.58
2023-02-03T07:54:38.131Z,4.64
2023-02-03T07:57:47.035Z,4.69
2023-02-03T08:00:55.370Z,4.73
2023-02-03T08:04:05.451Z,4.77
2023-02-03T08:07:15.413Z,4.74
2023-02-03T08:10:24.961Z,4.90
2023-02-03T08:13:33.373Z,4.93
2023-02-03T08:16:41.636Z,4.98
2023-02-03T08:19:49.846Z,5.02
2023-02-03T08:22:59.560Z,5.15
2023-02-03T08:26:07.790Z,5.17
2023-02-03T08:29:16.242Z,5.27
2023-02-03T08:32:25.036Z,5.31
2023-02-03T08:35:33.735Z,5.31
2023-02-03T08:38:43.570Z,5.38
2023-02-03T08:41:52.122Z,5.40
2023-02-03T08:45:02.347Z,5.39
2023-02-03T08:48:12.497Z,5.33
2023-02-03T08:51:20.637Z,5.36
2023-02-03T08:54:30.208Z,5.34
2023-02-03T08:57:39.994Z,5.42
2023-02-03T09:00:49.829Z,5.47
2023-02-03T09:03:58.903Z,5.62
2023-02-03T09:07:07.546Z,5.80
2023-02-03T09:10:17.568Z,5.86
2023-02-03T09:13:25.915Z,5.90
2023-02-03T09:16:34.266Z,5.86
2023-02-03T09:19:42.676Z,5.75
2023-02-03T09:22:50.876Z,5.74
2023-02-03T09:26:05.831Z,5.70
2023-02-03T09:29:14.144Z,5.69
2023-02-03T09:32:22.398Z,5.80
2023-02-03T09:35:30.679Z,5.75
2023-02-03T09:38:39.602Z,5.75
2023-02-03T09:42:17.881Z,5.71
2023-02-03T09:45:29.347Z,5.79
2023-02-03T09:48:45.047Z,5.89
2023-02-03T09:52:01.983Z,6.07
2023-02-03T09:55:27.790Z,6.08
2023-02-03T09:58:38.030Z,6.26
2023-02-03T10:01:57.419Z,6.20
2023-02-03T10:05:19.173Z,6.25
2023-02-03T10:08:47.781Z,6.31
2023-02-03T10:12:35.664Z,6.46
2023-02-03T10:16:17.324Z,6.36
2023-02-03T10:19:39.298Z,6.41
2023-02-03T10:22:53.192Z,6.47
2023-02-03T10:26:06.549Z,6.33
2023-02-03T10:29:27.755Z,6.47
2023-02-03T10:32:37.792Z,6.52
2023-02-03T10:35:53.113Z,6.53
2023-02-03T10:39:16.125Z,6.49
2023-02-03T10:42:24.832Z,6.54
2023-02-03T10:45:39.718Z,6.62
2023-02-03T10:48:50.443Z,6.52
2023-02-03T10:52:04.888Z,6.56
2023-02-03T10:55:35.024Z,6.49
2023-02-03T10:58:53.541Z,6.57
2023-02-03T11:02:09.293Z,6.61
2023-02-03T11:05:25.066Z,6.57
2023-02-03T11:08:35.826Z,6.49
2023-02-03T11:11:44.082Z,6.57
2023-02-03T11:14:54.759Z,6.58
2023-02-03T11:18:03.250Z,6.62
2023-02-03T11:21:18.699Z,6.65
2023-02-03T11:24:31.335Z,6.64
2023-02-03T11:27:40.355Z,6.83
2023-02-03T11:30:59.144Z,6.66
2023-02-03T11:34:17.920Z,6.70
2023-02-03T11:37:34.831Z,6.63
2023-02-03T11:40:43.973Z,6.80
2023-02-03T11:43:57.972Z,6.84
2023-02-03T11:47:14.715Z,6.79
2023-02-03T11:50:32.594Z,6.86
2023-02-03T11:54:03.975Z,7.10
2023-02-03T11:57:35.386Z,7.20
2023-02-03T12:00:56.964Z,7.25
2023-02-03T12:04:38.360Z,7.48
2023-02-03T12:08:14.885Z,7.38
2023-02-03T12:11:47.475Z,7.33
2023-02-03T12:15:16.037Z,7.35
2023-02-03T12:18:48.045Z,7.34
2023-02-03T12:22:06.459Z,7.35
2023-02-03T12:25:42.348Z,7.12
2023-02-03T12:29:05.572Z,7.16
2023-02-03T12:32:26.710Z,7.01
2023-02-03T12:35:45.143Z,7.00
2023-02-03T12:39:01.684Z,7.04
2023-02-03T12:42:19.260Z,6.88
2023-02-03T12:45:37.891Z,6.99
2023-02-03T12:48:56.183Z,7.02
2023-02-03T12:52:15.426Z,6.87
2023-02-03T12:55:33.655Z,6.84
2023-02-03T12:58:49.689Z,6.85
2023-02-03T13:02:13.890Z,6.84
2023-02-03T13:05:34.067Z,6.82
2023-02-03T13:08:51.809Z,6.85
2023-02-03T13:12:09.248Z,6.93
2023-02-03T13:15:29.904Z,6.99
2023-02-03T13:18:47.432Z,7.01
2023-02-03T13:21:56.213Z,6.98
2023-02-03T13:25:22.432Z,6.87
2023-02-03T13:29:03.843Z,6.76
2023-02-03T13:32:30.682Z,6.72
2023-02-03T13:36:07.764Z,6.61
2023-02-03T13:39:53.926Z,6.65
2023-02-03T13:43:08.282Z,6.62
2023-02-03T13:46:26.283Z,6.61
2023-02-03T13:49:38.003Z,6.49
2023-02-03T13:52:57.671Z,6.47
2023-02-03T13:56:11.174Z,6.50
2023-02-03T13:59:41.017Z,6.50
2023-02-03T14:02:57.356Z,6.47
2023-02-03T14:06:11.808Z,6.40
2023-02-03T14:09:24.438Z,6.35
2023-02-03T14:12:37.034Z,6.32
2023-02-03T14:15:47.087Z,6.31
2023-02-03T14:18:56.975Z,6.24
2023-02-03T14:22:10.968Z,6.31
2023-02-03T14:25:22.400Z,6.30
2023-02-03T14:28:41.627Z,6.27
2023-02-03T14:32:05.525Z,6.27
2023-02-03T14:35:22.877Z,6.29
2023-02-03T14:38:34.050Z,6.21
2023-02-03T14:41:56.352Z,6.24
2023-02-03T14:45:28.368Z,6.25
2023-02-03T14:48:52.036Z,6.19
2023-02-03T14:52:25.195Z,6.10
2023-02-03T14:55:50.020Z,6.17
2023-02-03T14:59:06.182Z,6.15
2023-02-03T15:02:23.036Z,6.08
2023-02-03T15:05:41.566Z,6.06
2023-02-03T15:08:50.537Z,6.07
2023-02-03T15:11:59.273Z,6.06
2023-02-03T15:15:25.275Z,6.01
2023-02-03T15:18:38.253Z,5.99
2023-02-03T15:21:48.506Z,6.08
2023-02-03T15:25:02.976Z,5.96
2023-02-03T15:28:16.497Z,5.99
2023-02-03T15:31:35.901Z,6.02
2023-02-03T15:34:48.855Z,5.97
2023-02-03T15:38:04.507Z,6.02
2023-02-03T15:41:24.158Z,6.00
2023-02-03T15:44:37.895Z,5.92
2023-02-03T15:47:57.109Z,5.97
2023-02-03T15:51:14.429Z,5.97
2023-02-03T15:54:30.302Z,5.92
2023-02-03T15:57:39.245Z,5.93
2023-02-03T16:00:54.084Z,5.96
2023-02-03T16:04:12.719Z,6.01
2023-02-03T16:07:25.655Z,6.03
2023-02-03T16:10:35.494Z,5.95
2023-02-03T16:13:45.564Z,5.96
2023-02-03T16:17:04.542Z,5.89
2023-02-03T16:20:28.442Z,5.92
2023-02-03T16:23:36.718Z,5.96
2023-02-03T16:26:44.946Z,5.95
2023-02-03T16:30:11.216Z,5.96
2023-02-03T16:33:37.188Z,5.96
2023-02-03T16:37:04.999Z,5.89
2023-02-03T16:40:33.233Z,5.95
2023-02-03T16:43:59.337Z,5.89
2023-02-03T16:47:42.573Z,5.84
2023-02-03T16:50:54.333Z,5.87
2023-02-03T16:54:04.236Z,5.85
2023-02-03T16:57:12.585Z,5.79
2023-02-03T17:00:22.653Z,5.82
2023-02-03T17:03:34.356Z,5.74
2023-02-03T17:06:44.140Z,5.81
2023-02-03T17:09:53.939Z,5.78
2023-02-03T17:13:02.545Z,5.78
2023-02-03T17:16:14.905Z,5.79
2023-02-03T17:19:23.436Z,5.71
2023-02-03T17:22:32.244Z,5.81
2023-02-03T17:25:42.283Z,5.74
2023-02-03T17:28:51.058Z,5.73
2023-02-03T17:32:00.564Z,5.67
2023-02-03T17:35:09.932Z,5.65
2023-02-03T17:38:18.333Z,5.66
2023-02-03T17:55:13.021Z,5.58
2023-02-03T17:58:22.909Z,5.61
2023-02-03T18:01:32.373Z,5.59
2023-02-03T18:04:42.202Z,5.61
2023-02-03T18:07:50.505Z,5.52
2023-02-03T18:11:01.069Z,5.47
2023-02-03T18:14:13.693Z,5.46
2023-02-03T18:17:22.330Z,5.38
2023-02-03T18:20:30.781Z,5.40
2023-02-03T18:23:39.865Z,5.37
2023-02-03T18:26:51.673Z,5.40
2023-02-03T18:30:01.268Z,5.41
2023-02-03T18:33:09.681Z,5.34
2023-02-03T18:36:18.303Z,5.30
2023-02-03T18:39:26.767Z,5.27
2023-02-03T18:42:35.079Z,5.30
2023-02-03T18:45:44.990Z,5.31
2023-02-03T18:48:53.308Z,5.29
2023-02-03T18:52:01.860Z,5.30
2023-02-03T18:55:10.498Z,5.35
2023-02-03T18:58:19.256Z,5.31
2023-02-03T19:01:31.934Z,5.32
2023-02-03T19:04:40.259Z,5.30
2023-02-03T19:07:48.430Z,5.28
2023-02-03T19:10:59.915Z,5.27
2023-02-03T19:14:08.590Z,5.19
2023-02-03T19:17:18.425Z,5.17
2023-02-03T19:20:26.726Z,5.09
2023-02-03T19:23:35.264Z,5.02
2023-02-03T19:26:43.589Z,5.02
2023-02-03T19:29:51.748Z,4.97
2023-02-03T19:33:01.496Z,4.94
2023-02-03T19:36:13.149Z,4.91
2023-02-03T19:39:23.620Z,4.88
2023-02-03T19:42:32.138Z,4.87
2023-02-03T19:45:40.720Z,4.87
2023-02-03T19:48:50.822Z,4.83
2023-02-03T19:51:59.786Z,4.81
2023-02-03T19:55:08.969Z,4.82
2023-02-03T19:58:17.767Z,4.77
2023-02-03T20:01:27.080Z,4.79
2023-02-03T20:04:36.767Z,4.80
2023-02-03T20:07:45.134Z,4.78
2023-02-03T20:10:53.521Z,4.72
2023-02-03T20:14:01.801Z,4.70
2023-02-03T20:17:10.205Z,4.72
2023-02-03T20:20:20.966Z,4.64
2023-02-03T20:23:29.598Z,4.65
2023-02-03T20:26:37.864Z,4.63
2023-02-03T20:29:47.326Z,4.63
2023-02-03T20:32:56.198Z,4.65
2023-02-03T20:36:06.952Z,4.63
2023-02-03T20:39:20.462Z,4.64
2023-02-03T20:42:28.686Z,4.61
2023-02-03T20:45:38.236Z,4.57
2023-02-03T20:48:46.940Z,4.62
2023-02-03T20:51:57.191Z,4.63
2023-02-03T20:55:14.172Z,4.62
2023-02-03T20:58:26.360Z,4.66
2023-02-03T21:01:35.860Z,4.67
2023-02-03T21:04:58.230Z,4.69
2023-02-03T21:08:15.650Z,4.69
2023-02-03T21:11:26.626Z,4.71
2023-02-03T21:14:42.124Z,4.68
2023-02-03T21:17:50.716Z,4.69
2023-02-03T21:20:59.539Z,4.74
2023-02-03T21:24:26.594Z,4.73
2023-02-03T21:27:36.087Z,4.67
2023-02-03T21:30:44.429Z,4.77
2023-02-03T21:33:54.953Z,4.76
2023-02-03T21:37:26.281Z,4.75
2023-02-03T21:40:36.422Z,4.67
2023-02-03T21:43:45.033Z,4.70
2023-02-03T21:46:53.457Z,4.69
2023-02-03T21:50:02.891Z,4.73
2023-02-03T21:53:28.394Z,4.75
2023-02-03T21:56:41.752Z,4.72
2023-02-03T21:59:49.951Z,4.73
2023-02-03T22:03:01.241Z,4.66
2023-02-03T22:06:22.743Z,4.74
2023-02-03T22:09:30.959Z,4.75
2023-02-03T22:12:40.681Z,4.66
2023-02-03T22:15:52.923Z,4.68
2023-02-03T22:19:01.418Z,4.58
2023-02-03T22:22:09.732Z,4.58
2023-02-03T22:25:17.897Z,4.60
2023-02-03T22:28:27.953Z,4.58
2023-02-03T22:31:36.582Z,4.59
2023-02-03T22:34:44.918Z,4.60
2023-02-03T22:37:53.872Z,4.59
2023-02-03T22:41:02.585Z,4.64
2023-02-03T22:44:16.070Z,4.63
2023-02-03T22:47:24.274Z,4.65
2023-02-03T22:50:35.920Z,4.70
2023-02-03T22:53:44.594Z,4.70
2023-02-03T22:56:52.752Z,4.68
2023-02-03T23:00:02.334Z,4.70
2023-02-03T23:03:10.648Z,4.66
2023-02-03T23:06:18.910Z,4.58
2023-02-03T23:09:27.183Z,4.62
2023-02-03T23:12:36.205Z,4.63
2023-02-03T23:15:45.913Z,4.63
2023-02-03T23:18:54.135Z,4.55
2023-02-03T23:22:02.344Z,4.50
2023-02-03T23:25:12.048Z,4.43
2023-02-03T23:28:20.406Z,4.39
2023-02-03T23:31:30.135Z,4.36
2023-02-03T23:34:56.426Z,4.37
2023-02-03T23:38:05.050Z,4.31
2023-02-03T23:41:13.606Z,4.29
2023-02-03T23:44:21.883Z,4.23
2023-02-03T23:47:31.557Z,4.27
2023-02-03T23:50:42.284Z,4.28
2023-02-03T23:53:50.704Z,4.28
2023-02-03T23:56:59.072Z,4.25
